Terminal Aerodrome Forecast
Issued by NWS

Home | Current Version | Previous Version | Text Only | Print | Product List | Glossary On
Versions: 1 2 3 4 5 6 7 8 9 10 11 12 13
978
FTUS41 KLWX 251413 AAA
TAFMTN
TAF AMD
KMTN 251413Z 2514/2612 04018G27KT 3SM -RADZ BKN008 OVC015
     FM252100 04010KT 6SM -RA BKN008 OVC015
     FM260600 01006KT 6SM BR BKN008 OVC015=

USA.gov is the U.S. government's official web portal to all federal, state and local government web resources and services.